createdAt,value
2019-02-06T00:02:19.525Z,48.91
2019-02-06T00:04:47.699Z,48.89
2019-02-06T00:07:15.896Z,48.83
2019-02-06T00:09:44.065Z,48.88
2019-02-06T00:12:12.280Z,48.81
2019-02-06T00:14:40.786Z,48.76
2019-02-06T00:17:09.017Z,48.72
2019-02-06T00:19:37.177Z,48.66
2019-02-06T00:22:06.129Z,48.63
2019-02-06T00:24:34.383Z,48.61
2019-02-06T00:27:02.565Z,48.65
2019-02-06T00:29:30.735Z,48.61
2019-02-06T00:31:59.104Z,48.55
2019-02-06T00:34:27.304Z,48.58
2019-02-06T00:36:55.500Z,48.50
2019-02-06T00:39:23.674Z,48.53
2019-02-06T00:41:51.854Z,48.59
2019-02-06T00:44:20.068Z,48.50
2019-02-06T00:46:48.319Z,48.58
2019-02-06T00:49:16.480Z,48.47
2019-02-06T00:51:44.690Z,48.50
2019-02-06T00:54:12.960Z,48.45
2019-02-06T00:56:41.180Z,48.34
2019-02-06T00:59:09.335Z,48.45
2019-02-06T01:01:37.501Z,48.48
2019-02-06T01:04:05.914Z,48.38
2019-02-06T01:06:34.145Z,48.28
2019-02-06T01:09:02.276Z,48.34
2019-02-06T01:11:30.425Z,48.23
2019-02-06T01:13:58.625Z,48.31
2019-02-06T01:16:26.789Z,48.26
2019-02-06T01:18:54.958Z,48.18
2019-02-06T01:21:24.785Z,48.16
2019-02-06T01:23:53.043Z,48.20
2019-02-06T01:29:08.349Z,48.26
2019-02-06T01:31:36.620Z,48.18
2019-02-06T01:34:06.422Z,48.17
2019-02-06T01:41:45.415Z,48.15
2019-02-06T01:44:13.560Z,48.08
2019-02-06T01:47:00.833Z,48.06
2019-02-06T01:49:29.015Z,48.09
2019-02-06T01:51:57.205Z,48.10
2019-02-06T01:54:25.360Z,48.08
2019-02-06T01:56:53.594Z,48.01
2019-02-06T01:59:21.677Z,47.98
2019-02-06T02:01:49.969Z,48.08
2019-02-06T02:07:24.175Z,48.05
2019-02-06T02:09:52.644Z,48.04
2019-02-06T02:12:20.814Z,47.94
2019-02-06T02:14:48.984Z,47.88
2019-02-06T02:17:17.194Z,47.86
2019-02-06T02:19:45.400Z,47.90
2019-02-06T02:22:32.514Z,47.80
2019-02-06T02:25:00.669Z,47.81
2019-02-06T02:27:28.893Z,47.74
2019-02-06T02:29:57.049Z,47.75
2019-02-06T02:32:25.181Z,47.72
2019-02-06T02:34:53.428Z,47.81
2019-02-06T02:37:23.209Z,47.86
2019-02-06T02:39:51.364Z,47.93
2019-02-06T02:42:19.524Z,47.88
2019-02-06T02:44:47.673Z,47.77
2019-02-06T02:47:15.861Z,47.73
2019-02-06T02:49:44.026Z,47.62
2019-02-06T02:52:12.177Z,47.73
2019-02-06T02:54:41.997Z,47.74
2019-02-06T02:57:10.173Z,47.71
2019-02-06T02:59:38.325Z,47.72
2019-02-06T03:02:25.424Z,47.59
2019-02-06T03:04:58.477Z,47.61
2019-02-06T03:07:26.692Z,47.59
2019-02-06T03:09:54.840Z,47.55
2019-02-06T03:12:23.022Z,47.59
2019-02-06T03:14:51.197Z,47.56
2019-02-06T03:17:19.391Z,47.52
2019-02-06T03:19:47.575Z,47.51
2019-02-06T03:22:17.438Z,47.51
2019-02-06T03:24:45.593Z,47.52
2019-02-06T03:27:13.777Z,47.41
2019-02-06T03:29:41.972Z,47.52
2019-02-06T03:32:29.258Z,47.45
2019-02-06T03:34:59.083Z,47.46
2019-02-06T03:37:27.268Z,47.47
2019-02-06T03:40:14.326Z,47.46
2019-02-06T03:42:42.529Z,47.39
2019-02-06T03:45:10.860Z,47.39
2019-02-06T03:47:40.724Z,47.48
2019-02-06T03:50:10.217Z,47.45
2019-02-06T03:52:38.347Z,47.38
2019-02-06T03:55:06.885Z,47.29
2019-02-06T03:57:35.059Z,47.39
2019-02-06T04:00:03.271Z,47.44
2019-02-06T04:02:33.063Z,47.35
2019-02-06T04:05:01.255Z,47.68
2019-02-06T04:07:29.383Z,48.49
2019-02-06T04:09:57.604Z,48.36
2019-02-06T04:12:25.762Z,48.08
2019-02-06T04:14:53.943Z,47.92
2019-02-06T04:17:22.137Z,47.73
2019-02-06T04:19:52.004Z,47.82
2019-02-06T04:22:20.242Z,47.58
2019-02-06T04:24:51.541Z,47.61
2019-02-06T04:27:18.243Z,47.53
2019-02-06T04:29:46.424Z,47.49
2019-02-06T04:32:14.590Z,47.37
2019-02-06T04:34:44.389Z,47.39
2019-02-06T04:37:12.563Z,47.36
2019-02-06T04:39:59.649Z,47.31
2019-02-06T04:42:27.899Z,47.26
2019-02-06T04:44:56.023Z,47.20
2019-02-06T04:47:25.870Z,47.21
2019-02-06T04:49:54.044Z,47.05
2019-02-06T04:52:22.245Z,47.02
2019-02-06T04:54:50.419Z,46.97
2019-02-06T04:57:18.568Z,47.03
2019-02-06T04:59:46.755Z,47.01
2019-02-06T05:02:14.932Z,47.02
2019-02-06T05:04:44.780Z,46.96
2019-02-06T05:07:19.451Z,46.97
2019-02-06T05:09:42.728Z,46.88
2019-02-06T05:12:10.886Z,46.93
2019-02-06T05:14:39.053Z,46.89
2019-02-06T05:17:07.228Z,46.87
2019-02-06T05:19:35.386Z,46.87
2019-02-06T05:22:03.619Z,46.95
2019-02-06T05:24:31.797Z,46.93
2019-02-06T05:27:18.869Z,48.16
2019-02-06T05:29:47.050Z,48.56
2019-02-06T05:32:15.242Z,48.02
2019-02-06T05:34:43.474Z,47.75
2019-02-06T05:37:11.657Z,47.73
2019-02-06T05:39:39.825Z,47.73
2019-02-06T05:42:07.966Z,47.59
2019-02-06T05:44:36.099Z,47.14
2019-02-06T05:47:04.249Z,47.54
2019-02-06T05:49:32.451Z,47.38
2019-02-06T05:52:00.722Z,48.52
2019-02-06T05:54:28.916Z,48.94
2019-02-06T05:56:57.041Z,49.14
2019-02-06T05:59:25.202Z,49.06
2019-02-06T06:01:53.404Z,49.03
2019-02-06T06:04:21.600Z,48.96
2019-02-06T06:06:49.754Z,48.78
2019-02-06T06:09:19.585Z,48.64
2019-02-06T06:11:47.763Z,48.80
2019-02-06T06:14:15.911Z,48.93
2019-02-06T06:16:44.082Z,49.01
2019-02-06T06:19:12.304Z,49.08
2019-02-06T06:21:40.448Z,49.14
2019-02-06T06:24:09.242Z,48.96
2019-02-06T06:26:38.548Z,49.02
2019-02-06T06:29:06.692Z,48.99
2019-02-06T06:31:34.934Z,48.88
2019-02-06T06:34:03.276Z,48.83
2019-02-06T06:36:31.473Z,48.82
2019-02-06T06:38:59.610Z,48.87
2019-02-06T06:41:27.800Z,48.86
2019-02-06T06:43:56.141Z,48.99
2019-02-06T06:46:24.409Z,48.92
2019-02-06T06:48:52.569Z,48.96
2019-02-06T06:51:20.723Z,48.71
2019-02-06T06:53:48.860Z,48.79
2019-02-06T06:56:17.046Z,48.10
2019-02-06T06:58:45.200Z,48.46
2019-02-06T07:01:13.336Z,48.36
2019-02-06T07:03:41.545Z,48.48
2019-02-06T07:06:09.694Z,48.30
2019-02-06T07:08:37.856Z,48.39
2019-02-06T07:11:05.991Z,48.26
2019-02-06T07:13:34.311Z,48.48
2019-02-06T07:16:03.151Z,48.38
2019-02-06T07:18:31.341Z,48.38
2019-02-06T07:21:01.562Z,48.41
2019-02-06T07:23:29.341Z,48.06
2019-02-06T07:25:57.483Z,48.24
2019-02-06T07:28:25.767Z,48.19
2019-02-06T07:30:53.870Z,48.29
2019-02-06T07:33:23.749Z,48.35
2019-02-06T07:36:10.937Z,48.41
2019-02-06T07:38:39.155Z,48.40
2019-02-06T07:43:54.457Z,48.46
2019-02-06T07:46:22.612Z,48.38
2019-02-06T07:48:50.765Z,48.41
2019-02-06T07:51:18.945Z,48.51
2019-02-06T07:53:47.192Z,48.79
2019-02-06T07:56:15.350Z,48.86
2019-02-06T07:58:44.193Z,48.82
2019-02-06T08:01:12.393Z,48.95
2019-02-06T08:03:40.514Z,51.96
2019-02-06T08:06:27.619Z,52.97
2019-02-06T08:08:55.847Z,52.63
2019-02-06T08:11:24.175Z,51.52
2019-02-06T08:13:52.321Z,51.44
2019-02-06T08:16:20.531Z,51.35
2019-02-06T08:18:48.739Z,51.14
2019-02-06T08:21:16.976Z,51.10
2019-02-06T08:23:45.310Z,50.97
2019-02-06T08:26:13.428Z,51.05
2019-02-06T08:28:41.720Z,50.58
2019-02-06T08:31:09.872Z,50.67
2019-02-06T08:33:38.029Z,50.67
2019-02-06T08:36:06.197Z,50.46
2019-02-06T08:38:34.356Z,50.38
2019-02-06T08:41:02.534Z,50.33
2019-02-06T08:43:30.787Z,50.28
2019-02-06T08:45:58.963Z,50.24
2019-02-06T08:48:27.132Z,50.07
2019-02-06T08:50:55.250Z,50.04
2019-02-06T08:53:23.416Z,50.00
2019-02-06T08:55:51.603Z,49.90
2019-02-06T08:58:19.750Z,49.89
2019-02-06T09:00:48.297Z,49.97
2019-02-06T09:03:16.475Z,49.84
2019-02-06T09:05:44.610Z,49.78
2019-02-06T09:08:12.819Z,49.82
2019-02-06T09:10:40.969Z,49.84
2019-02-06T09:13:09.092Z,49.91
2019-02-06T09:15:37.271Z,49.82
2019-02-06T09:18:05.771Z,49.86
2019-02-06T09:20:33.962Z,49.78
2019-02-06T09:23:02.088Z,49.38
2019-02-06T09:25:30.258Z,49.18
2019-02-06T09:27:58.397Z,49.30
2019-02-06T09:30:27.084Z,49.08
2019-02-06T09:32:55.488Z,48.94
2019-02-06T09:35:23.961Z,48.74
2019-02-06T09:37:52.115Z,48.69
2019-02-06T09:40:21.117Z,48.77
2019-02-06T09:42:49.277Z,48.74
2019-02-06T09:45:17.420Z,48.84
2019-02-06T09:47:45.587Z,48.88
2019-02-06T09:50:23.841Z,48.94
2019-02-06T09:52:52.025Z,48.83
2019-02-06T09:55:20.177Z,48.82
2019-02-06T09:57:48.361Z,48.78
2019-02-06T10:00:18.386Z,48.78
2019-02-06T10:02:46.526Z,48.92
2019-02-06T10:05:14.681Z,48.72
2019-02-06T10:07:46.018Z,48.75
2019-02-06T10:10:14.823Z,48.69
2019-02-06T10:12:42.978Z,48.69
2019-02-06T10:15:11.841Z,48.55
2019-02-06T10:17:40.009Z,48.52
2019-02-06T10:20:09.668Z,48.54
2019-02-06T10:22:38.182Z,48.35
2019-02-06T10:25:06.312Z,48.36
2019-02-06T10:27:35.219Z,48.40
2019-02-06T10:30:04.019Z,48.28
2019-02-06T10:32:32.272Z,48.36
2019-02-06T10:35:00.384Z,48.23
2019-02-06T10:37:29.263Z,48.32
2019-02-06T10:39:58.724Z,48.32
2019-02-06T10:42:27.112Z,48.31
2019-02-06T10:44:55.324Z,48.14
2019-02-06T10:47:23.548Z,48.31
2019-02-06T10:49:51.741Z,48.01
2019-02-06T10:52:20.008Z,48.09
2019-02-06T10:54:48.689Z,47.93
2019-02-06T10:57:16.855Z,48.08
2019-02-06T10:59:45.131Z,48.01
2019-02-06T11:02:13.339Z,48.05
2019-02-06T11:04:41.512Z,47.99
2019-02-06T11:07:09.755Z,48.12
2019-02-06T11:09:46.097Z,48.03
2019-02-06T11:12:07.787Z,48.21
2019-02-06T11:14:35.996Z,48.14
2019-02-06T11:17:04.314Z,48.23
2019-02-06T11:19:32.538Z,48.09
2019-02-06T11:22:00.770Z,48.11
2019-02-06T11:24:29.019Z,48.08
2019-02-06T11:26:57.273Z,48.18
2019-02-06T11:29:25.833Z,47.92
2019-02-06T11:31:54.184Z,47.82
2019-02-06T11:34:22.436Z,47.25
2019-02-06T11:36:50.703Z,46.78
2019-02-06T11:39:22.992Z,46.68
2019-02-06T11:41:51.208Z,46.74
2019-02-06T11:44:19.762Z,46.91
2019-02-06T11:46:48.019Z,46.67
2019-02-06T11:49:17.334Z,46.79
2019-02-06T11:51:45.602Z,46.60
2019-02-06T11:54:13.870Z,46.63
2019-02-06T11:56:42.133Z,46.73
2019-02-06T11:59:10.452Z,46.53
2019-02-06T12:01:42.743Z,46.53
2019-02-06T12:04:10.937Z,46.46
2019-02-06T12:06:39.208Z,46.10
2019-02-06T12:09:11.714Z,46.18
2019-02-06T12:11:39.993Z,46.16
2019-02-06T12:14:08.198Z,45.94
2019-02-06T12:16:36.525Z,45.86
2019-02-06T12:19:05.303Z,45.91
2019-02-06T12:21:33.503Z,45.71
2019-02-06T12:24:01.672Z,45.36
2019-02-06T12:26:29.917Z,45.12
2019-02-06T12:28:58.105Z,45.00
2019-02-06T12:31:26.301Z,45.08
2019-02-06T12:33:54.595Z,44.63
2019-02-06T12:36:22.816Z,44.41
2019-02-06T12:38:53.516Z,44.36
2019-02-06T12:41:20.796Z,44.26
2019-02-06T12:43:49.002Z,44.26
2019-02-06T12:46:17.203Z,44.16
2019-02-06T12:48:45.414Z,44.00
2019-02-06T12:51:13.645Z,43.97
2019-02-06T12:53:41.964Z,43.62
2019-02-06T12:56:10.177Z,43.56
2019-02-06T12:58:38.556Z,43.76
2019-02-06T13:01:07.028Z,43.90
2019-02-06T13:03:35.369Z,44.34
2019-02-06T13:06:03.604Z,44.59
2019-02-06T13:08:31.973Z,45.20
2019-02-06T13:11:00.432Z,45.07
2019-02-06T13:13:28.660Z,45.38
2019-02-06T13:15:56.972Z,45.07
2019-02-06T13:18:25.387Z,45.08
2019-02-06T13:20:53.613Z,44.95
2019-02-06T13:23:21.998Z,44.76
2019-02-06T13:25:50.320Z,45.00
2019-02-06T13:28:18.804Z,44.79
2019-02-06T13:30:47.204Z,44.98
2019-02-06T13:33:15.580Z,44.72
2019-02-06T13:35:43.912Z,44.94
2019-02-06T13:38:12.379Z,45.07
2019-02-06T13:40:45.550Z,44.98
2019-02-06T13:43:10.562Z,44.71
2019-02-06T13:45:40.180Z,44.83
2019-02-06T13:48:08.671Z,44.67
2019-02-06T13:50:37.062Z,44.57
2019-02-06T13:53:05.420Z,44.71
2019-02-06T13:55:33.849Z,44.77
2019-02-06T13:58:02.250Z,44.69
2019-02-06T14:00:31.265Z,44.61
2019-02-06T14:02:59.565Z,44.76
2019-02-06T14:05:28.468Z,44.59
2019-02-06T14:07:57.960Z,44.59
2019-02-06T14:10:26.292Z,44.65
2019-02-06T14:12:54.768Z,44.45
2019-02-06T14:15:24.002Z,44.54
2019-02-06T14:17:52.593Z,44.50
2019-02-06T14:20:21.102Z,44.57
2019-02-06T14:22:52.560Z,44.46
2019-02-06T14:25:39.886Z,44.37
2019-02-06T14:28:14.057Z,44.47
2019-02-06T14:31:07.792Z,44.33
2019-02-06T14:33:42.735Z,44.40
2019-02-06T14:36:30.041Z,44.44
2019-02-06T14:39:02.670Z,44.36
2019-02-06T14:41:33.211Z,44.61
2019-02-06T14:44:33.063Z,44.45
2019-02-06T14:47:20.353Z,44.60
2019-02-06T14:50:10.435Z,44.38
2019-02-06T14:52:42.615Z,44.54
2019-02-06T14:55:29.890Z,44.47
2019-02-06T14:58:15.762Z,44.61
2019-02-06T15:00:59.265Z,44.70
2019-02-06T15:03:34.134Z,44.28
2019-02-06T15:06:09.698Z,43.97
2019-02-06T15:08:55.848Z,43.68
2019-02-06T15:11:26.484Z,43.53
2019-02-06T15:14:14.184Z,43.11
2019-02-06T15:17:16.580Z,42.88
2019-02-06T15:20:03.644Z,42.77
2019-02-06T15:23:03.247Z,42.83
2019-02-06T15:25:52.621Z,43.07
2019-02-06T15:28:39.890Z,43.84
2019-02-06T15:31:25.921Z,44.00
2019-02-06T15:34:01.461Z,43.83
2019-02-06T15:36:52.518Z,44.10
2019-02-06T15:39:42.946Z,44.32
2019-02-06T15:42:29.137Z,44.28
2019-02-06T15:45:34.769Z,44.33
2019-02-06T15:48:11.749Z,44.08
2019-02-06T15:50:58.089Z,44.31
2019-02-06T15:53:51.435Z,44.54
2019-02-06T15:56:37.613Z,44.41
2019-02-06T15:59:24.881Z,44.41
2019-02-06T16:01:59.119Z,44.40
2019-02-06T16:04:54.536Z,44.30
2019-02-06T16:07:36.669Z,44.49
2019-02-06T16:10:32.983Z,44.39
2019-02-06T16:13:07.118Z,44.21
2019-02-06T16:15:47.212Z,44.19
2019-02-06T16:18:37.752Z,44.28
2019-02-06T16:21:31.016Z,44.20
2019-02-06T16:24:27.439Z,44.07
2019-02-06T16:27:13.395Z,44.31
2019-02-06T16:30:12.813Z,44.23
2019-02-06T16:32:58.863Z,44.15
2019-02-06T16:35:58.313Z,44.09
2019-02-06T16:38:31.801Z,44.09
2019-02-06T16:41:22.409Z,44.33
2019-02-06T16:43:58.306Z,44.37
2019-02-06T16:47:04.423Z,44.35
2019-02-06T16:49:54.848Z,44.17
2019-02-06T16:52:48.441Z,44.18
2019-02-06T16:55:51.114Z,44.06
2019-02-06T16:58:25.549Z,44.25
2019-02-06T17:01:11.488Z,44.19
2019-02-06T17:03:43.897Z,44.25
2019-02-06T17:06:15.918Z,44.15
2019-02-06T17:09:04.265Z,44.13
2019-02-06T17:11:42.480Z,44.02
2019-02-06T17:14:28.847Z,44.15
2019-02-06T17:17:25.363Z,44.12
2019-02-06T17:20:11.469Z,44.06
2019-02-06T17:23:01.598Z,44.05
2019-02-06T17:25:34.249Z,43.97
2019-02-06T17:28:14.461Z,43.82
2019-02-06T17:31:00.511Z,43.88
2019-02-06T17:33:56.989Z,43.94
2019-02-06T17:36:42.981Z,43.79
2019-02-06T17:39:36.633Z,43.89
2019-02-06T17:42:15.687Z,44.00
2019-02-06T17:45:15.174Z,43.90
2019-02-06T17:48:08.376Z,43.37
2019-02-06T17:51:01.851Z,42.58
2019-02-06T17:53:42.153Z,42.14
2019-02-06T17:56:10.362Z,42.26
2019-02-06T17:58:42.970Z,41.98
2019-02-06T18:01:13.397Z,42.16
2019-02-06T18:03:43.646Z,42.37
2019-02-06T18:06:11.981Z,42.32
2019-02-06T18:08:40.222Z,42.37
2019-02-06T18:11:08.401Z,42.41
2019-02-06T18:13:36.613Z,42.23
2019-02-06T18:16:05.137Z,42.46
2019-02-06T18:18:33.374Z,42.21
2019-02-06T18:21:01.697Z,42.33
2019-02-06T18:23:29.888Z,42.35
2019-02-06T18:25:58.133Z,42.28
2019-02-06T18:28:26.280Z,42.17
2019-02-06T18:30:54.559Z,42.46
2019-02-06T18:33:22.756Z,42.76
2019-02-06T18:35:51.277Z,42.41
2019-02-06T18:38:19.435Z,42.47
2019-02-06T18:40:48.207Z,42.52
2019-02-06T18:43:16.492Z,42.23
2019-02-06T18:45:44.768Z,42.12
2019-02-06T18:48:12.933Z,41.79
2019-02-06T18:50:41.124Z,41.74
2019-02-06T18:53:09.286Z,41.97
2019-02-06T18:55:37.637Z,41.88
2019-02-06T18:58:05.872Z,41.84
2019-02-06T19:00:34.027Z,42.27
2019-02-06T19:03:03.056Z,42.10
2019-02-06T19:05:32.761Z,42.08
2019-02-06T19:08:00.956Z,41.92
2019-02-06T19:10:29.276Z,41.98
2019-02-06T19:12:57.417Z,42.06
2019-02-06T19:15:25.852Z,42.09
2019-02-06T19:17:54.108Z,42.15
2019-02-06T19:20:22.362Z,42.10
2019-02-06T19:22:50.524Z,42.15
2019-02-06T19:25:18.864Z,42.13
2019-02-06T19:27:46.989Z,42.24
2019-02-06T19:30:20.130Z,42.16
2019-02-06T19:32:48.267Z,41.99
2019-02-06T19:35:16.525Z,42.06
2019-02-06T19:37:44.669Z,42.06
2019-02-06T19:40:12.930Z,42.23
2019-02-06T19:42:41.053Z,42.14
2019-02-06T19:45:09.278Z,42.22
2019-02-06T19:47:37.426Z,42.07
2019-02-06T19:50:08.704Z,42.28
2019-02-06T19:52:37.861Z,42.29
2019-02-06T19:55:07.294Z,42.23
2019-02-06T19:57:35.551Z,42.03
2019-02-06T20:00:04.192Z,42.07
2019-02-06T20:02:32.382Z,42.40
2019-02-06T20:05:00.505Z,42.35
2019-02-06T20:07:28.701Z,42.25
2019-02-06T20:09:56.911Z,42.05
2019-02-06T20:12:25.404Z,42.32
2019-02-06T20:14:55.453Z,42.41
2019-02-06T20:17:23.448Z,42.34
2019-02-06T20:19:51.608Z,42.50
2019-02-06T20:22:19.923Z,42.19
2019-02-06T20:24:48.150Z,42.38
2019-02-06T20:27:16.368Z,42.31
2019-02-06T20:29:44.917Z,42.26
2019-02-06T20:32:13.094Z,42.36
2019-02-06T20:34:41.271Z,42.40
2019-02-06T20:37:09.500Z,42.37
2019-02-06T20:39:37.717Z,42.31
2019-02-06T20:42:05.863Z,42.33
2019-02-06T20:44:34.020Z,42.52
2019-02-06T20:47:02.223Z,42.56
2019-02-06T20:49:31.009Z,42.40
2019-02-06T20:51:59.162Z,42.44
2019-02-06T20:54:27.409Z,42.39
2019-02-06T20:56:56.373Z,42.20
2019-02-06T20:59:24.629Z,42.40
2019-02-06T21:01:52.869Z,42.19
2019-02-06T21:04:21.107Z,42.31
2019-02-06T21:06:49.699Z,42.21
2019-02-06T21:09:18.700Z,42.12
2019-02-06T21:11:46.886Z,42.45
2019-02-06T21:14:15.080Z,42.32
2019-02-06T21:16:43.335Z,42.29
2019-02-06T21:19:11.546Z,42.21
2019-02-06T21:21:39.732Z,42.07
2019-02-06T21:24:08.291Z,42.06
2019-02-06T21:26:36.882Z,42.21
2019-02-06T21:29:05.094Z,42.17
2019-02-06T21:31:33.278Z,41.98
2019-02-06T21:34:01.464Z,42.28
2019-02-06T21:36:29.659Z,42.33
2019-02-06T21:38:57.836Z,42.28
2019-02-06T21:41:26.365Z,42.16
2019-02-06T21:43:54.604Z,42.18
2019-02-06T21:46:22.894Z,42.27
2019-02-06T21:48:51.089Z,42.47
2019-02-06T21:51:19.384Z,42.25
2019-02-06T21:53:47.691Z,42.30
2019-02-06T21:56:15.888Z,42.41
2019-02-06T21:58:44.141Z,42.43
2019-02-06T22:01:12.307Z,42.33
2019-02-06T22:03:40.503Z,42.54
2019-02-06T22:06:08.680Z,42.50
2019-02-06T22:08:36.894Z,42.33
2019-02-06T22:11:05.178Z,42.56
2019-02-06T22:13:33.851Z,42.43
2019-02-06T22:16:02.009Z,42.58
2019-02-06T22:18:30.177Z,42.76
2019-02-06T22:20:58.434Z,42.84
2019-02-06T22:23:26.636Z,42.74
2019-02-06T22:25:54.801Z,42.51
2019-02-06T22:28:22.957Z,42.52
2019-02-06T22:30:51.141Z,42.42
2019-02-06T22:33:19.305Z,42.64
2019-02-06T22:35:47.554Z,42.65
2019-02-06T22:38:15.767Z,42.49
2019-02-06T22:40:43.962Z,42.70
2019-02-06T22:43:12.161Z,42.43
2019-02-06T22:45:40.312Z,42.70
2019-02-06T22:48:08.486Z,42.40
2019-02-06T22:50:36.664Z,42.69
2019-02-06T22:53:04.831Z,42.60
2019-02-06T22:55:33.000Z,42.71
2019-02-06T22:58:01.312Z,42.52
2019-02-06T23:00:52.528Z,42.57
2019-02-06T23:03:22.748Z,42.59
2019-02-06T23:05:51.051Z,42.58
2019-02-06T23:08:19.201Z,42.34
2019-02-06T23:10:47.422Z,42.55
2019-02-06T23:13:16.518Z,42.68
2019-02-06T23:15:44.672Z,42.57
2019-02-06T23:18:12.979Z,42.46
2019-02-06T23:20:41.164Z,42.48
2019-02-06T23:23:09.393Z,42.65
2019-02-06T23:25:37.561Z,42.59
2019-02-06T23:28:05.791Z,42.65
2019-02-06T23:30:33.988Z,42.56
2019-02-06T23:33:02.278Z,42.32
2019-02-06T23:35:30.472Z,42.54
2019-02-06T23:37:58.621Z,42.67
2019-02-06T23:40:26.853Z,42.55
2019-02-06T23:42:55.009Z,42.35
2019-02-06T23:45:23.676Z,42.48
2019-02-06T23:47:51.900Z,42.50
2019-02-06T23:50:20.044Z,42.44
2019-02-06T23:52:48.211Z,42.43
2019-02-06T23:55:16.377Z,42.51
2019-02-06T23:57:44.541Z,42.34
